sensor_id;sensor_type;location;lat;lon;timestamp;pressure;altitude;pressure_sealevel;temperature;humidity
65872;BME280;52653;50.080;21.992;2023-03-03T00:00:21;99415.19;;;-3.26;82.52
65872;BME280;52653;50.080;21.992;2023-03-03T00:03:22;99411.67;;;-3.20;82.65
65872;BME280;52653;50.080;21.992;2023-03-03T00:06:01;99409.79;;;-3.17;82.61
65872;BME280;52653;50.080;21.992;2023-03-03T00:08:54;99407.66;;;-3.15;83.12
65872;BME280;52653;50.080;21.992;2023-03-03T00:11:49;99405.63;;;-3.18;82.85
65872;BME280;52653;50.080;21.992;2023-03-03T00:15:00;99405.19;;;-3.24;82.59
65872;BME280;52653;50.080;21.992;2023-03-03T00:17:36;99404.20;;;-3.30;82.91
65872;BME280;52653;50.080;21.992;2023-03-03T00:20:32;99404.62;;;-3.35;82.97
65872;BME280;52653;50.080;21.992;2023-03-03T00:23:33;99405.35;;;-3.41;82.95
65872;BME280;52653;50.080;21.992;2023-03-03T00:26:33;99401.34;;;-3.49;82.78
65872;BME280;52653;50.080;21.992;2023-03-03T00:29:32;99403.71;;;-3.56;82.77
65872;BME280;52653;50.080;21.992;2023-03-03T00:32:29;99403.88;;;-3.60;83.50
65872;BME280;52653;50.080;21.992;2023-03-03T00:35:26;99399.29;;;-3.63;83.75
65872;BME280;52653;50.080;21.992;2023-03-03T00:38:20;99399.00;;;-3.65;84.43
65872;BME280;52653;50.080;21.992;2023-03-03T00:41:17;99398.58;;;-3.67;84.58
65872;BME280;52653;50.080;21.992;2023-03-03T00:44:41;99397.19;;;-3.70;84.65
65872;BME280;52653;50.080;21.992;2023-03-03T00:47:37;99394.98;;;-3.73;85.02
65872;BME280;52653;50.080;21.992;2023-03-03T00:50:34;99390.06;;;-3.75;85.26
65872;BME280;52653;50.080;21.992;2023-03-03T00:53:28;99389.86;;;-3.79;85.19
65872;BME280;52653;50.080;21.992;2023-03-03T00:56:22;99392.90;;;-3.83;85.29
65872;BME280;52653;50.080;21.992;2023-03-03T00:59:15;99392.68;;;-3.88;85.33
65872;BME280;52653;50.080;21.992;2023-03-03T01:02:08;99389.52;;;-3.92;85.04
65872;BME280;52653;50.080;21.992;2023-03-03T01:05:01;99390.95;;;-3.98;84.72
65872;BME280;52653;50.080;21.992;2023-03-03T01:07:54;99388.98;;;-4.02;84.76
65872;BME280;52653;50.080;21.992;2023-03-03T01:10:50;99384.95;;;-4.07;85.22
65872;BME280;52653;50.080;21.992;2023-03-03T01:13:44;99384.02;;;-4.12;85.43
65872;BME280;52653;50.080;21.992;2023-03-03T01:16:39;99384.02;;;-4.16;85.52
65872;BME280;52653;50.080;21.992;2023-03-03T01:19:25;99387.53;;;-4.20;85.35
65872;BME280;52653;50.080;21.992;2023-03-03T01:22:18;99386.13;;;-4.24;84.94
65872;BME280;52653;50.080;21.992;2023-03-03T01:25:11;99386.10;;;-4.28;84.86
65872;BME280;52653;50.080;21.992;2023-03-03T01:28:05;99383.67;;;-4.32;84.98
65872;BME280;52653;50.080;21.992;2023-03-03T01:31:02;99389.02;;;-4.34;84.97
65872;BME280;52653;50.080;21.992;2023-03-03T01:33:48;99385.16;;;-4.36;85.17
65872;BME280;52653;50.080;21.992;2023-03-03T01:36:42;99380.00;;;-4.36;85.27
65872;BME280;52653;50.080;21.992;2023-03-03T01:39:34;99376.63;;;-4.35;85.30
65872;BME280;52653;50.080;21.992;2023-03-03T01:42:26;99374.15;;;-4.33;85.51
65872;BME280;52653;50.080;21.992;2023-03-03T01:45:23;99375.39;;;-4.30;85.52
65872;BME280;52653;50.080;21.992;2023-03-03T01:48:19;99370.74;;;-4.24;85.66
65872;BME280;52653;50.080;21.992;2023-03-03T01:51:08;99372.62;;;-4.14;85.56
65872;BME280;52653;50.080;21.992;2023-03-03T01:54:13;99370.88;;;-4.01;85.97
65872;BME280;52653;50.080;21.992;2023-03-03T01:57:14;99370.57;;;-3.88;86.01
65872;BME280;52653;50.080;21.992;2023-03-03T02:00:11;99371.26;;;-3.71;86.20
65872;BME280;52653;50.080;21.992;2023-03-03T02:02:57;99369.34;;;-3.55;85.96
65872;BME280;52653;50.080;21.992;2023-03-03T02:05:52;99364.82;;;-3.39;85.89
65872;BME280;52653;50.080;21.992;2023-03-03T02:08:42;99365.37;;;-3.21;86.28
65872;BME280;52653;50.080;21.992;2023-03-03T02:11:37;99368.83;;;-3.03;86.24
65872;BME280;52653;50.080;21.992;2023-03-03T02:14:33;99363.14;;;-2.82;86.33
65872;BME280;52653;50.080;21.992;2023-03-03T02:17:19;99362.57;;;-2.61;86.28
65872;BME280;52653;50.080;21.992;2023-03-03T02:20:16;99361.45;;;-2.41;86.03
65872;BME280;52653;50.080;21.992;2023-03-03T02:23:19;99359.05;;;-2.25;85.66
65872;BME280;52653;50.080;21.992;2023-03-03T02:26:15;99360.80;;;-2.09;85.89
65872;BME280;52653;50.080;21.992;2023-03-03T02:29:10;99357.45;;;-1.88;86.27
65872;BME280;52653;50.080;21.992;2023-03-03T02:31:56;99352.17;;;-1.71;85.98
65872;BME280;52653;50.080;21.992;2023-03-03T02:34:51;99351.88;;;-1.66;85.21
65872;BME280;52653;50.080;21.992;2023-03-03T02:37:37;99347.40;;;-1.66;85.08
65872;BME280;52653;50.080;21.992;2023-03-03T02:40:32;99344.98;;;-1.66;85.38
65872;BME280;52653;50.080;21.992;2023-03-03T02:43:18;99352.55;;;-1.63;85.61
65872;BME280;52653;50.080;21.992;2023-03-03T02:46:05;99351.71;;;-1.58;85.96
65872;BME280;52653;50.080;21.992;2023-03-03T02:48:59;99351.98;;;-1.55;85.74
65872;BME280;52653;50.080;21.992;2023-03-03T02:51:53;99350.61;;;-1.55;85.70
65872;BME280;52653;50.080;21.992;2023-03-03T02:54:47;99346.64;;;-1.52;85.89
65872;BME280;52653;50.080;21.992;2023-03-03T02:57:40;99346.14;;;-1.43;86.19
65872;BME280;52653;50.080;21.992;2023-03-03T03:00:29;99346.63;;;-1.36;86.20
65872;BME280;52653;50.080;21.992;2023-03-03T03:03:22;99345.41;;;-1.32;86.07
65872;BME280;52653;50.080;21.992;2023-03-03T03:06:15;99344.59;;;-1.27;86.10
65872;BME280;52653;50.080;21.992;2023-03-03T03:09:09;99341.91;;;-1.21;86.21
65872;BME280;52653;50.080;21.992;2023-03-03T03:12:03;99345.70;;;-1.16;85.83
65872;BME280;52653;50.080;21.992;2023-03-03T03:14:56;99341.92;;;-1.12;85.76
65872;BME280;52653;50.080;21.992;2023-03-03T03:17:48;99340.48;;;-1.05;85.52
65872;BME280;52653;50.080;21.992;2023-03-03T03:20:36;99341.61;;;-0.98;85.12
65872;BME280;52653;50.080;21.992;2023-03-03T03:23:32;99335.48;;;-0.88;85.22
65872;BME280;52653;50.080;21.992;2023-03-03T03:26:26;99324.80;;;-0.75;85.33
65872;BME280;52653;50.080;21.992;2023-03-03T03:29:19;99323.38;;;-0.58;85.32
65872;BME280;52653;50.080;21.992;2023-03-03T03:32:12;99326.05;;;-0.47;85.04
65872;BME280;52653;50.080;21.992;2023-03-03T03:35:07;99324.55;;;-0.32;85.38
65872;BME280;52653;50.080;21.992;2023-03-03T03:38:00;99322.80;;;-0.27;84.50
65872;BME280;52653;50.080;21.992;2023-03-03T03:40:53;99322.30;;;-0.27;84.46
65872;BME280;52653;50.080;21.992;2023-03-03T03:43:40;99319.48;;;-0.28;84.08
65872;BME280;52653;50.080;21.992;2023-03-03T03:46:34;99323.25;;;-0.30;84.41
65872;BME280;52653;50.080;21.992;2023-03-03T03:49:27;99321.33;;;-0.31;84.31
65872;BME280;52653;50.080;21.992;2023-03-03T03:52:21;99315.64;;;-0.36;84.33
65872;BME280;52653;50.080;21.992;2023-03-03T03:55:14;99312.98;;;-0.37;84.18
65872;BME280;52653;50.080;21.992;2023-03-03T03:58:08;99311.27;;;-0.37;84.15
65872;BME280;52653;50.080;21.992;2023-03-03T04:01:04;99312.83;;;-0.32;84.16
65872;BME280;52653;50.080;21.992;2023-03-03T04:03:57;99308.76;;;-0.25;84.10
65872;BME280;52653;50.080;21.992;2023-03-03T04:06:50;99302.34;;;-0.13;84.50
65872;BME280;52653;50.080;21.992;2023-03-03T04:09:36;99300.30;;;-0.02;84.47
65872;BME280;52653;50.080;21.992;2023-03-03T04:12:29;99296.21;;;0.04;84.19
65872;BME280;52653;50.080;21.992;2023-03-03T04:15:29;99294.08;;;0.03;83.64
65872;BME280;52653;50.080;21.992;2023-03-03T04:18:15;99292.86;;;-0.02;83.38
65872;BME280;52653;50.080;21.992;2023-03-03T04:21:12;99295.59;;;-0.04;84.10
65872;BME280;52653;50.080;21.992;2023-03-03T04:24:07;99291.55;;;-0.01;84.27
65872;BME280;52653;50.080;21.992;2023-03-03T04:27:00;99292.09;;;-0.05;83.85
65872;BME280;52653;50.080;21.992;2023-03-03T04:29:53;99289.40;;;-0.08;83.84
65872;BME280;52653;50.080;21.992;2023-03-03T04:32:47;99281.16;;;-0.07;84.26
65872;BME280;52653;50.080;21.992;2023-03-03T04:35:40;99282.41;;;-0.06;84.10
65872;BME280;52653;50.080;21.992;2023-03-03T04:38:34;99283.95;;;-0.06;84.26
65872;BME280;52653;50.080;21.992;2023-03-03T04:41:26;99284.15;;;-0.05;84.21
65872;BME280;52653;50.080;21.992;2023-03-03T04:44:20;99281.66;;;-0.02;84.33
65872;BME280;52653;50.080;21.992;2023-03-03T04:47:13;99283.86;;;0.01;84.39
65872;BME280;52653;50.080;21.992;2023-03-03T04:50:10;99283.21;;;0.03;84.37
65872;BME280;52653;50.080;21.992;2023-03-03T04:52:54;99285.64;;;0.08;84.63
65872;BME280;52653;50.080;21.992;2023-03-03T04:55:48;99283.77;;;0.14;84.50
65872;BME280;52653;50.080;21.992;2023-03-03T04:58:41;99283.86;;;0.21;84.56
65872;BME280;52653;50.080;21.992;2023-03-03T05:01:35;99284.71;;;0.26;84.66
65872;BME280;52653;50.080;21.992;2023-03-03T05:04:28;99287.67;;;0.26;84.52
65872;BME280;52653;50.080;21.992;2023-03-03T05:07:14;99288.92;;;0.23;84.37
65872;BME280;52653;50.080;21.992;2023-03-03T05:10:01;99290.56;;;0.21;84.54
65872;BME280;52653;50.080;21.992;2023-03-03T05:12:54;99291.08;;;0.20;84.71
65872;BME280;52653;50.080;21.992;2023-03-03T05:15:51;99289.91;;;0.22;84.54
65872;BME280;52653;50.080;21.992;2023-03-03T05:18:45;99286.35;;;0.24;84.38
65872;BME280;52653;50.080;21.992;2023-03-03T05:21:38;99287.34;;;0.26;84.20
65872;BME280;52653;50.080;21.992;2023-03-03T05:24:33;99290.03;;;0.30;84.42
65872;BME280;52653;50.080;21.992;2023-03-03T05:27:26;99294.52;;;0.40;84.73
65872;BME280;52653;50.080;21.992;2023-03-03T05:30:18;99298.64;;;0.45;84.27
65872;BME280;52653;50.080;21.992;2023-03-03T05:33:14;99297.92;;;0.44;84.06
65872;BME280;52653;50.080;21.992;2023-03-03T05:36:08;99301.31;;;0.32;83.79
65872;BME280;52653;50.080;21.992;2023-03-03T05:39:01;99303.13;;;0.25;84.41
65872;BME280;52653;50.080;21.992;2023-03-03T05:41:54;99301.91;;;0.25;84.61
65872;BME280;52653;50.080;21.992;2023-03-03T05:44:47;99309.13;;;0.19;84.53
65872;BME280;52653;50.080;21.992;2023-03-03T05:47:40;99308.41;;;0.13;84.81
65872;BME280;52653;50.080;21.992;2023-03-03T05:50:34;99310.86;;;0.14;84.69
65872;BME280;52653;50.080;21.992;2023-03-03T05:53:28;99313.73;;;0.17;84.89
65872;BME280;52653;50.080;21.992;2023-03-03T05:56:21;99311.41;;;0.20;84.78
65872;BME280;52653;50.080;21.992;2023-03-03T05:59:13;99313.73;;;0.27;84.77
65872;BME280;52653;50.080;21.992;2023-03-03T06:02:00;99314.38;;;0.30;84.45
65872;BME280;52653;50.080;21.992;2023-03-03T06:04:52;99307.07;;;0.39;84.97
65872;BME280;52653;50.080;21.992;2023-03-03T06:07:45;99303.09;;;0.53;85.17
65872;BME280;52653;50.080;21.992;2023-03-03T06:10:38;99307.11;;;0.66;85.20
65872;BME280;52653;50.080;21.992;2023-03-03T06:13:32;99305.45;;;0.68;84.49
65872;BME280;52653;50.080;21.992;2023-03-03T06:16:25;99306.63;;;0.67;84.37
65872;BME280;52653;50.080;21.992;2023-03-03T06:19:11;99305.85;;;0.64;84.30
65872;BME280;52653;50.080;21.992;2023-03-03T06:22:04;99307.02;;;0.58;84.24
65872;BME280;52653;50.080;21.992;2023-03-03T06:24:57;99310.01;;;0.54;84.29
65872;BME280;52653;50.080;21.992;2023-03-03T06:27:49;99314.39;;;0.56;84.61
65872;BME280;52653;50.080;21.992;2023-03-03T06:30:43;99317.73;;;0.58;84.69
65872;BME280;52653;50.080;21.992;2023-03-03T06:33:36;99315.17;;;0.59;84.55
65872;BME280;52653;50.080;21.992;2023-03-03T06:36:29;99312.73;;;0.64;84.54
65872;BME280;52653;50.080;21.992;2023-03-03T06:39:22;99313.69;;;0.72;84.40
65872;BME280;52653;50.080;21.992;2023-03-03T06:42:16;99315.98;;;0.78;84.44
65872;BME280;52653;50.080;21.992;2023-03-03T06:45:14;99313.10;;;0.85;84.27
65872;BME280;52653;50.080;21.992;2023-03-03T06:48:07;99316.60;;;0.81;83.86
65872;BME280;52653;50.080;21.992;2023-03-03T06:51:17;99317.17;;;0.77;84.15
65872;BME280;52653;50.080;21.992;2023-03-03T06:54:14;99320.61;;;0.83;84.39
65872;BME280;52653;50.080;21.992;2023-03-03T06:57:16;99320.86;;;0.85;84.28
65872;BME280;52653;50.080;21.992;2023-03-03T07:00:19;99319.96;;;0.84;84.07
65872;BME280;52653;50.080;21.992;2023-03-03T07:03:13;99319.48;;;0.85;84.24
65872;BME280;52653;50.080;21.992;2023-03-03T07:06:17;99318.11;;;0.85;84.06
65872;BME280;52653;50.080;21.992;2023-03-03T07:09:19;99321.26;;;0.92;84.12
65872;BME280;52653;50.080;21.992;2023-03-03T07:12:14;99322.41;;;1.01;84.18
65872;BME280;52653;50.080;21.992;2023-03-03T07:15:15;99324.93;;;1.15;84.23
65872;BME280;52653;50.080;21.992;2023-03-03T07:18:24;99321.17;;;1.28;83.83
65872;BME280;52653;50.080;21.992;2023-03-03T07:21:22;99320.90;;;1.30;83.39
65872;BME280;52653;50.080;21.992;2023-03-03T07:24:26;99316.77;;;1.30;83.37
65872;BME280;52653;50.080;21.992;2023-03-03T07:27:23;99321.13;;;1.31;83.26
65872;BME280;52653;50.080;21.992;2023-03-03T07:30:26;99323.29;;;1.34;83.65
65872;BME280;52653;50.080;21.992;2023-03-03T07:33:27;99320.42;;;1.42;83.73
65872;BME280;52653;50.080;21.992;2023-03-03T07:36:27;99316.05;;;1.47;83.46
65872;BME280;52653;50.080;21.992;2023-03-03T07:39:27;99313.11;;;1.52;83.41
65872;BME280;52653;50.080;21.992;2023-03-03T07:42:24;99311.31;;;1.62;83.22
65872;BME280;52653;50.080;21.992;2023-03-03T07:45:27;99310.30;;;1.67;82.68
65872;BME280;52653;50.080;21.992;2023-03-03T07:48:23;99307.70;;;1.73;82.47
65872;BME280;52653;50.080;21.992;2023-03-03T07:51:20;99304.21;;;1.85;82.47
65872;BME280;52653;50.080;21.992;2023-03-03T07:54:39;99300.72;;;1.96;82.10
65872;BME280;52653;50.080;21.992;2023-03-03T07:57:32;99293.59;;;2.07;81.58
65872;BME280;52653;50.080;21.992;2023-03-03T08:03:51;99292.52;;;2.38;81.51
65872;BME280;52653;50.080;21.992;2023-03-03T08:06:44;99294.52;;;2.48;80.92
65872;BME280;52653;50.080;21.992;2023-03-03T08:09:44;99298.77;;;2.52;80.69
65872;BME280;52653;50.080;21.992;2023-03-03T08:12:39;99294.64;;;2.60;80.65
65872;BME280;52653;50.080;21.992;2023-03-03T08:15:37;99297.77;;;2.67;79.98
65872;BME280;52653;50.080;21.992;2023-03-03T08:18:33;99304.71;;;2.68;79.32
65872;BME280;52653;50.080;21.992;2023-03-03T08:21:26;99304.84;;;2.66;78.96
65872;BME280;52653;50.080;21.992;2023-03-03T08:24:16;99302.40;;;2.73;78.99
65872;BME280;52653;50.080;21.992;2023-03-03T08:27:09;99297.81;;;2.83;79.01
65872;BME280;52653;50.080;21.992;2023-03-03T08:30:02;99297.97;;;2.96;78.81
65872;BME280;52653;50.080;21.992;2023-03-03T08:32:55;99299.27;;;2.93;78.27
65872;BME280;52653;50.080;21.992;2023-03-03T08:35:48;99295.24;;;2.99;78.61
65872;BME280;52653;50.080;21.992;2023-03-03T08:38:42;99297.70;;;3.07;78.20
65872;BME280;52653;50.080;21.992;2023-03-03T08:41:35;99300.13;;;3.22;78.01
65872;BME280;52653;50.080;21.992;2023-03-03T08:44:23;99296.32;;;3.30;77.71
65872;BME280;52653;50.080;21.992;2023-03-03T08:47:15;99299.18;;;3.34;78.18
65872;BME280;52653;50.080;21.992;2023-03-03T08:50:10;99302.31;;;3.27;77.44
65872;BME280;52653;50.080;21.992;2023-03-03T08:53:03;99303.35;;;3.12;77.12
65872;BME280;52653;50.080;21.992;2023-03-03T08:55:57;99301.34;;;3.01;77.08
65872;BME280;52653;50.080;21.992;2023-03-03T08:58:42;99305.18;;;2.94;77.02
65872;BME280;52653;50.080;21.992;2023-03-03T09:01:53;99307.23;;;3.01;76.98
65872;BME280;52653;50.080;21.992;2023-03-03T09:04:46;99302.59;;;3.24;76.79
65872;BME280;52653;50.080;21.992;2023-03-03T09:07:40;99307.02;;;3.51;76.92
65872;BME280;52653;50.080;21.992;2023-03-03T09:10:35;99309.98;;;3.77;76.17
65872;BME280;52653;50.080;21.992;2023-03-03T09:13:29;99301.95;;;3.98;75.29
65872;BME280;52653;50.080;21.992;2023-03-03T09:16:22;99297.51;;;4.30;74.72
65872;BME280;52653;50.080;21.992;2023-03-03T09:19:16;99292.95;;;4.57;74.20
65872;BME280;52653;50.080;21.992;2023-03-03T09:22:19;99288.50;;;5.02;73.08
65872;BME280;52653;50.080;21.992;2023-03-03T09:25:22;99287.38;;;5.31;71.84
65872;BME280;52653;50.080;21.992;2023-03-03T09:28:21;99291.85;;;5.40;70.63
65872;BME280;52653;50.080;21.992;2023-03-03T09:31:24;99286.59;;;5.24;69.50
65872;BME280;52653;50.080;21.992;2023-03-03T09:34:22;99292.34;;;5.03;69.46
65872;BME280;52653;50.080;21.992;2023-03-03T09:37:02;99290.08;;;4.81;69.33
65872;BME280;52653;50.080;21.992;2023-03-03T09:40:36;99299.96;;;4.50;68.65
65872;BME280;52653;50.080;21.992;2023-03-03T09:43:38;99300.53;;;4.24;69.60
65872;BME280;52653;50.080;21.992;2023-03-03T09:46:39;99298.61;;;4.15;70.20
65872;BME280;52653;50.080;21.992;2023-03-03T09:49:39;99303.91;;;4.11;70.24
65872;BME280;52653;50.080;21.992;2023-03-03T09:52:43;99306.22;;;3.96;70.13
65872;BME280;52653;50.080;21.992;2023-03-03T09:55:47;99309.70;;;3.88;70.25
65872;BME280;52653;50.080;21.992;2023-03-03T09:58:50;99310.41;;;3.89;70.69
65872;BME280;52653;50.080;21.992;2023-03-03T10:01:52;99314.04;;;3.88;70.76
65872;BME280;52653;50.080;21.992;2023-03-03T10:05:04;99318.34;;;3.94;71.18
65872;BME280;52653;50.080;21.992;2023-03-03T10:08:20;99321.70;;;4.06;71.09
65872;BME280;52653;50.080;21.992;2023-03-03T10:11:27;99326.55;;;4.06;69.95
65872;BME280;52653;50.080;21.992;2023-03-03T10:14:23;99325.97;;;4.03;70.16
65872;BME280;52653;50.080;21.992;2023-03-03T10:17:36;99326.98;;;4.01;70.01
65872;BME280;52653;50.080;21.992;2023-03-03T10:20:44;99337.18;;;3.99;69.48
65872;BME280;52653;50.080;21.992;2023-03-03T10:23:55;99330.25;;;4.00;69.01
65872;BME280;52653;50.080;21.992;2023-03-03T10:26:55;99315.39;;;4.11;68.39
65872;BME280;52653;50.080;21.992;2023-03-03T10:30:12;99308.58;;;4.28;67.77
65872;BME280;52653;50.080;21.992;2023-03-03T10:33:35;99314.64;;;4.54;67.37
65872;BME280;52653;50.080;21.992;2023-03-03T10:36:55;99319.55;;;4.58;65.77
65872;BME280;52653;50.080;21.992;2023-03-03T10:39:54;99318.36;;;4.49;65.24
65872;BME280;52653;50.080;21.992;2023-03-03T10:43:12;99315.74;;;4.39;65.33
65872;BME280;52653;50.080;21.992;2023-03-03T10:46:35;99310.91;;;4.41;65.49
65872;BME280;52653;50.080;21.992;2023-03-03T10:49:48;99309.06;;;4.54;65.53
65872;BME280;52653;50.080;21.992;2023-03-03T10:52:47;99312.64;;;4.60;64.98
65872;BME280;52653;50.080;21.992;2023-03-03T10:55:48;99306.56;;;4.59;64.90
65872;BME280;52653;50.080;21.992;2023-03-03T10:58:53;99302.13;;;4.64;64.72
65872;BME280;52653;50.080;21.992;2023-03-03T11:01:55;99301.98;;;4.66;64.76
65872;BME280;52653;50.080;21.992;2023-03-03T11:04:44;99296.84;;;4.70;64.12
65872;BME280;52653;50.080;21.992;2023-03-03T11:07:37;99299.52;;;4.74;63.97
65872;BME280;52653;50.080;21.992;2023-03-03T11:10:44;99299.65;;;4.82;64.28
65872;BME280;52653;50.080;21.992;2023-03-03T11:13:44;99291.09;;;4.90;62.54
65872;BME280;52653;50.080;21.992;2023-03-03T11:16:46;99286.11;;;4.83;62.00
65872;BME280;52653;50.080;21.992;2023-03-03T11:19:51;99283.84;;;4.92;63.23
65872;BME280;52653;50.080;21.992;2023-03-03T11:22:51;99280.25;;;5.19;62.96
65872;BME280;52653;50.080;21.992;2023-03-03T11:25:41;99275.27;;;5.23;62.31
65872;BME280;52653;50.080;21.992;2023-03-03T11:29:03;99274.70;;;5.20;62.05
65872;BME280;52653;50.080;21.992;2023-03-03T11:32:11;99279.14;;;5.15;62.48
65872;BME280;52653;50.080;21.992;2023-03-03T11:34:59;99279.76;;;4.98;62.46
65872;BME280;52653;50.080;21.992;2023-03-03T11:38:05;99275.24;;;4.88;63.49
65872;BME280;52653;50.080;21.992;2023-03-03T11:41:05;99265.77;;;4.83;64.59
65872;BME280;52653;50.080;21.992;2023-03-03T11:44:04;99260.80;;;4.87;65.36
65872;BME280;52653;50.080;21.992;2023-03-03T11:47:04;99256.97;;;4.96;65.98
65872;BME280;52653;50.080;21.992;2023-03-03T11:49:55;99256.00;;;4.91;65.52
65872;BME280;52653;50.080;21.992;2023-03-03T11:52:54;99253.92;;;4.81;66.02
65872;BME280;52653;50.080;21.992;2023-03-03T11:55:55;99251.61;;;4.77;66.07
65872;BME280;52653;50.080;21.992;2023-03-03T11:58:53;99244.53;;;4.69;66.52
65872;BME280;52653;50.080;21.992;2023-03-03T12:01:43;99249.98;;;4.71;66.75
65872;BME280;52653;50.080;21.992;2023-03-03T12:04:41;99248.80;;;4.75;67.05
65872;BME280;52653;50.080;21.992;2023-03-03T12:07:43;99242.23;;;4.78;67.09
65872;BME280;52653;50.080;21.992;2023-03-03T12:10:44;99246.17;;;4.85;66.91
65872;BME280;52653;50.080;21.992;2023-03-03T12:13:51;99244.31;;;4.88;66.63
65872;BME280;52653;50.080;21.992;2023-03-03T12:16:46;99242.23;;;4.98;65.81
65872;BME280;52653;50.080;21.992;2023-03-03T12:19:50;99244.48;;;4.98;65.37
65872;BME280;52653;50.080;21.992;2023-03-03T12:22:51;99241.88;;;4.98;65.08
65872;BME280;52653;50.080;21.992;2023-03-03T12:25:59;99236.84;;;4.98;65.01
65872;BME280;52653;50.080;21.992;2023-03-03T12:28:57;99234.52;;;5.07;64.93
65872;BME280;52653;50.080;21.992;2023-03-03T12:31:56;99231.29;;;5.12;64.35
65872;BME280;52653;50.080;21.992;2023-03-03T12:35:00;99225.27;;;5.16;64.20
65872;BME280;52653;50.080;21.992;2023-03-03T12:38:02;99226.94;;;5.11;64.15
65872;BME280;52653;50.080;21.992;2023-03-03T12:40:58;99226.94;;;5.11;64.39
65872;BME280;52653;50.080;21.992;2023-03-03T12:43:57;99227.30;;;5.12;64.09
65872;BME280;52653;50.080;21.992;2023-03-03T12:46:50;99217.88;;;5.09;63.85
65872;BME280;52653;50.080;21.992;2023-03-03T12:49:54;99223.55;;;5.06;63.37
65872;BME280;52653;50.080;21.992;2023-03-03T12:53:06;99222.27;;;5.01;63.81
65872;BME280;52653;50.080;21.992;2023-03-03T12:56:05;99216.45;;;5.08;63.44
65872;BME280;52653;50.080;21.992;2023-03-03T12:59:02;99216.55;;;5.15;63.26
65872;BME280;52653;50.080;21.992;2023-03-03T13:02:10;99221.06;;;5.26;62.72
65872;BME280;52653;50.080;21.992;2023-03-03T13:05:19;99215.58;;;5.32;61.71
65872;BME280;52653;50.080;21.992;2023-03-03T13:08:36;99214.59;;;5.36;61.40
65872;BME280;52653;50.080;21.992;2023-03-03T13:14:44;99211.58;;;5.32;61.96
65872;BME280;52653;50.080;21.992;2023-03-03T13:17:47;99207.79;;;5.22;63.02
65872;BME280;52653;50.080;21.992;2023-03-03T13:20:47;99204.42;;;5.18;63.79
65872;BME280;52653;50.080;21.992;2023-03-03T13:23:42;99205.08;;;5.15;64.21
65872;BME280;52653;50.080;21.992;2023-03-03T13:26:41;99207.05;;;5.08;63.68
65872;BME280;52653;50.080;21.992;2023-03-03T13:29:40;99202.95;;;4.99;63.94
65872;BME280;52653;50.080;21.992;2023-03-03T13:32:37;99204.02;;;4.90;63.41
65872;BME280;52653;50.080;21.992;2023-03-03T13:35:42;99210.27;;;4.78;63.58
65872;BME280;52653;50.080;21.992;2023-03-03T13:38:40;99210.11;;;4.79;63.82
65872;BME280;52653;50.080;21.992;2023-03-03T13:41:24;99206.48;;;4.80;63.88
65872;BME280;52653;50.080;21.992;2023-03-03T13:44:25;99202.54;;;4.83;63.45
65872;BME280;52653;50.080;21.992;2023-03-03T13:47:15;99200.76;;;4.82;63.20
65872;BME280;52653;50.080;21.992;2023-03-03T13:50:07;99208.66;;;4.85;63.30
65872;BME280;52653;50.080;21.992;2023-03-03T13:53:31;99210.59;;;4.86;62.86
65872;BME280;52653;50.080;21.992;2023-03-03T13:56:44;99214.56;;;4.74;63.00
65872;BME280;52653;50.080;21.992;2023-03-03T13:59:49;99210.61;;;4.66;63.52
65872;BME280;52653;50.080;21.992;2023-03-03T14:02:54;99213.89;;;4.55;63.34
65872;BME280;52653;50.080;21.992;2023-03-03T14:05:51;99228.65;;;4.44;63.27
65872;BME280;52653;50.080;21.992;2023-03-03T14:09:04;99223.98;;;4.34;63.69
65872;BME280;52653;50.080;21.992;2023-03-03T14:12:06;99219.66;;;4.36;64.40
65872;BME280;52653;50.080;21.992;2023-03-03T14:15:05;99217.04;;;4.45;64.33
65872;BME280;52653;50.080;21.992;2023-03-03T14:18:20;99214.81;;;4.47;63.94
65872;BME280;52653;50.080;21.992;2023-03-03T14:21:17;99213.58;;;4.46;64.47
65872;BME280;52653;50.080;21.992;2023-03-03T14:24:15;99211.27;;;4.42;64.97
65872;BME280;52653;50.080;21.992;2023-03-03T14:27:23;99214.54;;;4.31;64.93
65872;BME280;52653;50.080;21.992;2023-03-03T14:30:25;99216.50;;;4.14;64.74
65872;BME280;52653;50.080;21.992;2023-03-03T14:33:21;99215.88;;;3.98;64.98
65872;BME280;52653;50.080;21.992;2023-03-03T14:36:14;99216.85;;;3.86;65.61
65872;BME280;52653;50.080;21.992;2023-03-03T14:38:58;99220.86;;;3.69;66.11
65872;BME280;52653;50.080;21.992;2023-03-03T14:41:44;99225.23;;;3.53;66.99
65872;BME280;52653;50.080;21.992;2023-03-03T14:44:55;99224.12;;;3.34;67.31
65872;BME280;52653;50.080;21.992;2023-03-03T14:47:44;99227.51;;;3.22;67.80
65872;BME280;52653;50.080;21.992;2023-03-03T14:50:39;99233.20;;;3.13;68.24
65872;BME280;52653;50.080;21.992;2023-03-03T14:53:34;99233.34;;;3.04;68.45
65872;BME280;52653;50.080;21.992;2023-03-03T14:56:32;99236.66;;;3.05;68.22
65872;BME280;52653;50.080;21.992;2023-03-03T14:59:26;99237.20;;;2.98;68.22
65872;BME280;52653;50.080;21.992;2023-03-03T15:02:31;99238.92;;;2.99;68.19
65872;BME280;52653;50.080;21.992;2023-03-03T15:05:24;99230.69;;;2.93;68.36
65872;BME280;52653;50.080;21.992;2023-03-03T15:08:15;99237.10;;;2.87;68.61
65872;BME280;52653;50.080;21.992;2023-03-03T15:11:23;99231.08;;;2.80;68.97
65872;BME280;52653;50.080;21.992;2023-03-03T15:14:14;99222.20;;;2.72;69.51
65872;BME280;52653;50.080;21.992;2023-03-03T15:17:24;99221.08;;;2.61;69.88
65872;BME280;52653;50.080;21.992;2023-03-03T15:20:36;99218.79;;;2.52;70.32
65872;BME280;52653;50.080;21.992;2023-03-03T15:23:43;99213.15;;;2.41;70.66
65872;BME280;52653;50.080;21.992;2023-03-03T15:26:45;99210.13;;;2.31;71.03
65872;BME280;52653;50.080;21.992;2023-03-03T15:29:25;99211.45;;;2.22;71.36
65872;BME280;52653;50.080;21.992;2023-03-03T15:32:10;99208.29;;;2.13;71.98
65872;BME280;52653;50.080;21.992;2023-03-03T15:34:56;99208.16;;;2.08;72.33
65872;BME280;52653;50.080;21.992;2023-03-03T15:37:41;99212.75;;;2.04;72.70
65872;BME280;52653;50.080;21.992;2023-03-03T15:40:23;99213.41;;;2.04;72.75